createdAt,value
2022-09-02T00:02:25.284Z,12.90
2022-09-02T00:04:52.751Z,14.45
2022-09-02T00:07:20.247Z,13.27
2022-09-02T00:09:47.629Z,15.75
2022-09-02T00:12:15.552Z,14.10
2022-09-02T00:14:43.102Z,12.75
2022-09-02T00:17:10.540Z,13.43
2022-09-02T00:19:38.519Z,12.35
2022-09-02T00:22:06.057Z,12.52
2022-09-02T00:24:33.649Z,10.55
2022-09-02T00:27:01.568Z,10.63
2022-09-02T00:29:30.973Z,12.63
2022-09-02T00:31:59.032Z,9.82
2022-09-02T00:34:26.675Z,14.18
2022-09-02T00:36:54.081Z,12.73
2022-09-02T00:39:21.557Z,15.00
2022-09-02T00:41:48.980Z,16.95
2022-09-02T00:44:19.062Z,11.82
2022-09-02T00:46:47.716Z,10.60
2022-09-02T00:49:26.452Z,10.68
2022-09-02T00:52:00.383Z,15.75
2022-09-02T00:54:31.365Z,11.93
2022-09-02T00:57:01.344Z,14.35
2022-09-02T01:00:10.016Z,8.98
2022-09-02T01:02:40.878Z,14.05
2022-09-02T01:07:39.982Z,12.70
2022-09-02T01:10:10.971Z,13.63
2022-09-02T01:15:09.227Z,13.63
2022-09-02T01:20:12.120Z,14.45
2022-09-02T01:22:42.167Z,12.55
2022-09-02T01:25:14.122Z,15.53
2022-09-02T01:27:42.083Z,9.65
2022-09-02T01:30:13.424Z,9.88
2022-09-02T01:32:40.933Z,7.15
2022-09-02T01:35:08.676Z,11.18
2022-09-02T01:37:38.714Z,9.32
2022-09-02T01:40:08.072Z,11.10
2022-09-02T01:42:35.779Z,12.13
2022-09-02T01:45:04.916Z,9.32
2022-09-02T01:47:32.931Z,12.70
2022-09-02T01:50:00.565Z,11.27
2022-09-02T01:52:29.317Z,11.63
2022-09-02T01:54:58.029Z,15.73
2022-09-02T01:57:25.482Z,11.52
2022-09-02T01:59:54.539Z,13.68
2022-09-02T02:02:22.875Z,9.98
2022-09-02T02:04:51.006Z,14.07
2022-09-02T02:07:20.396Z,11.30
2022-09-02T02:09:48.526Z,12.73
2022-09-02T02:12:16.976Z,15.77
2022-09-02T02:14:44.762Z,16.35
2022-09-02T02:17:12.879Z,10.18
2022-09-02T02:19:40.775Z,17.40
2022-09-02T02:22:08.289Z,15.85
2022-09-02T02:24:35.816Z,13.32
2022-09-02T02:27:03.920Z,16.33
2022-09-02T02:29:31.399Z,16.58
2022-09-02T02:31:58.822Z,14.00
2022-09-02T02:34:26.281Z,19.85
2022-09-02T02:36:53.753Z,16.50
2022-09-02T02:39:21.321Z,15.30
2022-09-02T02:41:48.773Z,19.85
2022-09-02T02:44:16.340Z,14.23
2022-09-02T02:46:44.287Z,14.43
2022-09-02T02:49:12.004Z,11.60
2022-09-02T02:51:39.403Z,10.95
2022-09-02T02:54:06.861Z,13.00
2022-09-02T02:56:34.905Z,9.75
2022-09-02T02:59:03.560Z,12.93
2022-09-02T03:01:32.356Z,14.60
2022-09-02T03:04:00.056Z,15.38
2022-09-02T03:06:27.471Z,13.82
2022-09-02T03:08:54.874Z,14.18
2022-09-02T03:11:22.670Z,16.77
2022-09-02T03:13:51.164Z,15.43
2022-09-02T03:16:19.981Z,16.17
2022-09-02T03:18:49.295Z,11.82
2022-09-02T03:21:18.176Z,13.80
2022-09-02T03:23:46.698Z,15.13
2022-09-02T03:26:20.451Z,8.85
2022-09-02T03:28:49.417Z,12.90
2022-09-02T03:31:20.356Z,9.95
2022-09-02T03:36:23.829Z,10.77
2022-09-02T03:38:51.915Z,13.48
2022-09-02T03:41:19.462Z,15.45
2022-09-02T03:43:47.254Z,8.80
2022-09-02T03:46:14.799Z,9.13
2022-09-02T03:48:42.551Z,20.73
2022-09-02T03:51:10.065Z,12.25
2022-09-02T03:53:39.122Z,8.98
2022-09-02T03:56:15.048Z,11.50
2022-09-02T03:58:45.495Z,8.65
2022-09-02T04:01:18.859Z,16.55
2022-09-02T04:03:47.067Z,9.85
2022-09-02T04:06:17.323Z,16.48
2022-09-02T04:08:45.116Z,15.32
2022-09-02T04:11:19.027Z,16.13
2022-09-02T04:13:48.873Z,12.88
2022-09-02T04:16:19.347Z,13.40
2022-09-02T04:18:47.568Z,15.00
2022-09-02T04:21:16.059Z,14.57
2022-09-02T04:23:43.582Z,18.80
2022-09-02T04:26:13.489Z,15.13
2022-09-02T04:28:41.500Z,15.80
2022-09-02T04:31:11.869Z,11.80
2022-09-02T04:33:40.319Z,13.23
2022-09-02T04:36:10.522Z,16.70
2022-09-02T04:38:42.342Z,13.10
2022-09-02T04:41:21.611Z,13.60
2022-09-02T04:43:55.645Z,11.02
2022-09-02T04:46:23.020Z,6.03
2022-09-02T04:49:02.032Z,11.75
2022-09-02T04:51:29.828Z,15.43
2022-09-02T04:53:57.493Z,15.60
2022-09-02T04:56:27.808Z,12.65
2022-09-02T04:58:55.911Z,10.55
2022-09-02T05:01:26.812Z,16.98
2022-09-02T05:06:27.246Z,18.58
2022-09-02T05:08:56.365Z,13.27
2022-09-02T05:11:28.521Z,10.63
2022-09-02T05:13:59.418Z,18.60
2022-09-02T05:16:30.391Z,16.17
2022-09-02T05:21:26.021Z,9.25
2022-09-02T05:23:54.739Z,19.42
2022-09-02T05:26:22.743Z,11.95
2022-09-02T05:28:51.100Z,16.15
2022-09-02T05:31:20.599Z,16.15
2022-09-02T05:33:48.809Z,20.67
2022-09-02T05:36:20.456Z,8.23
2022-09-02T05:38:49.059Z,12.80
2022-09-02T05:41:19.817Z,10.13
2022-09-02T05:43:48.660Z,10.15
2022-09-02T05:46:18.246Z,14.15
2022-09-02T05:49:05.337Z,12.43
2022-09-02T05:51:37.441Z,15.07
2022-09-02T05:54:04.899Z,16.98
2022-09-02T05:56:32.317Z,15.02
2022-09-02T05:59:01.710Z,18.80
2022-09-02T06:01:30.178Z,17.80
2022-09-02T06:03:59.353Z,11.17
2022-09-02T06:06:26.728Z,17.13
2022-09-02T06:08:54.239Z,12.68
2022-09-02T06:11:22.187Z,9.85
2022-09-02T06:13:51.782Z,15.18
2022-09-02T06:16:21.352Z,14.48
2022-09-02T06:18:50.563Z,13.00
2022-09-02T06:21:20.708Z,20.42
2022-09-02T06:23:48.510Z,16.27
2022-09-02T06:26:17.065Z,20.25
2022-09-02T06:28:44.908Z,14.55
2022-09-02T06:31:15.972Z,15.35
2022-09-02T06:33:45.122Z,27.95
2022-09-02T06:36:17.932Z,19.02
2022-09-02T06:38:47.624Z,25.77
2022-09-02T06:41:18.067Z,15.60
2022-09-02T06:43:46.147Z,15.90
2022-09-02T06:46:23.122Z,16.40
2022-09-02T06:48:51.243Z,20.80
2022-09-02T06:51:21.943Z,15.13
2022-09-02T06:53:49.640Z,11.07
2022-09-02T06:56:17.351Z,25.20
2022-09-02T06:58:45.024Z,14.57
2022-09-02T07:01:25.723Z,15.43
2022-09-02T07:04:12.057Z,14.88
2022-09-02T07:06:42.296Z,14.55
2022-09-02T07:09:11.583Z,18.67
2022-09-02T07:11:39.406Z,11.23
2022-09-02T07:14:06.921Z,16.23
2022-09-02T07:16:42.291Z,21.05
2022-09-02T07:19:15.061Z,13.88
2022-09-02T07:21:43.631Z,14.02
2022-09-02T07:24:14.089Z,11.18
2022-09-02T07:26:42.706Z,10.77
2022-09-02T07:29:10.374Z,19.20
2022-09-02T07:31:39.792Z,17.52
2022-09-02T07:34:10.044Z,17.10
2022-09-02T07:36:37.989Z,15.55
2022-09-02T07:39:08.034Z,17.35
2022-09-02T07:41:36.575Z,21.50
2022-09-02T07:44:05.923Z,17.77
2022-09-02T07:46:34.055Z,14.65
2022-09-02T07:49:04.142Z,18.48
2022-09-02T07:51:33.328Z,21.05
2022-09-02T07:54:02.007Z,14.38
2022-09-02T07:56:29.533Z,12.45
2022-09-02T07:58:56.960Z,13.80
2022-09-02T08:01:24.891Z,13.02
2022-09-02T08:03:53.757Z,13.27
2022-09-02T08:06:33.680Z,11.88
2022-09-02T08:09:04.970Z,10.23
2022-09-02T08:11:34.981Z,12.63
2022-09-02T08:14:02.460Z,12.65
2022-09-02T08:16:30.120Z,15.57
2022-09-02T08:18:58.397Z,17.70
2022-09-02T08:21:25.813Z,10.65
2022-09-02T08:23:53.218Z,14.00
2022-09-02T08:26:21.441Z,10.55
2022-09-02T08:28:48.907Z,16.92
2022-09-02T08:31:16.620Z,12.07
2022-09-02T08:33:44.903Z,13.95
2022-09-02T08:36:15.019Z,8.10
2022-09-02T08:38:43.968Z,16.93
2022-09-02T08:41:25.319Z,13.77
2022-09-02T08:43:57.188Z,12.25
2022-09-02T08:46:27.348Z,16.58
2022-09-02T08:49:08.415Z,14.45
2022-09-02T08:51:56.788Z,15.15
2022-09-02T08:54:40.567Z,8.90
2022-09-02T08:57:10.509Z,16.02
2022-09-02T09:02:24.570Z,15.95
2022-09-02T09:05:20.277Z,12.70
2022-09-02T09:08:34.335Z,11.07
2022-09-02T09:11:38.665Z,14.38
2022-09-02T09:14:13.698Z,17.58
2022-09-02T09:16:58.151Z,14.95
2022-09-02T09:19:38.490Z,19.02
2022-09-02T09:22:05.962Z,18.30
2022-09-02T09:24:41.463Z,15.77
2022-09-02T09:27:17.457Z,15.38
2022-09-02T09:29:45.065Z,11.05
2022-09-02T09:32:47.822Z,10.65
2022-09-02T09:35:17.430Z,13.10
2022-09-02T09:37:52.793Z,17.10
2022-09-02T09:40:23.214Z,12.35
2022-09-02T09:42:56.892Z,11.00
2022-09-02T09:45:41.851Z,19.08
2022-09-02T09:48:29.931Z,17.85
2022-09-02T09:50:57.352Z,13.18
2022-09-02T09:53:29.989Z,12.95
2022-09-02T09:56:17.780Z,9.95
2022-09-02T09:58:47.584Z,14.93
2022-09-02T10:01:33.130Z,11.60
2022-09-02T10:04:02.465Z,13.07
2022-09-02T10:06:30.780Z,7.50
2022-09-02T10:09:03.424Z,13.60
2022-09-02T10:11:34.054Z,6.85
2022-09-02T10:14:04.163Z,10.70
2022-09-02T10:16:57.888Z,14.00
2022-09-02T10:19:47.052Z,11.55
2022-09-02T10:22:20.424Z,16.10
2022-09-02T10:25:42.650Z,12.27
2022-09-02T10:28:26.457Z,7.30
2022-09-02T10:30:59.981Z,8.98
2022-09-02T10:33:27.325Z,6.82
2022-09-02T10:36:17.185Z,9.02
2022-09-02T10:38:50.826Z,12.80
2022-09-02T10:41:38.042Z,10.60
2022-09-02T10:44:24.282Z,7.72
2022-09-02T10:47:01.366Z,15.15
2022-09-02T10:49:37.796Z,14.48
2022-09-02T10:52:42.539Z,11.13
2022-09-02T10:55:39.789Z,11.25
2022-09-02T10:58:30.004Z,8.98
2022-09-02T11:00:57.718Z,10.73
2022-09-02T11:03:38.738Z,13.70
2022-09-02T11:06:20.068Z,8.07
2022-09-02T11:08:49.771Z,9.45
2022-09-02T11:11:22.561Z,11.55
2022-09-02T11:13:52.676Z,12.10
2022-09-02T11:16:42.975Z,9.02
2022-09-02T11:19:19.469Z,4.78
2022-09-02T11:22:28.735Z,9.40
2022-09-02T11:25:00.638Z,7.40
2022-09-02T11:27:52.506Z,6.72
2022-09-02T11:30:23.694Z,8.05
2022-09-02T11:33:13.050Z,12.55
2022-09-02T11:35:40.842Z,5.55
2022-09-02T11:38:20.142Z,10.55
2022-09-02T11:41:38.074Z,8.88
2022-09-02T11:44:43.266Z,7.22
2022-09-02T11:47:29.288Z,7.03
2022-09-02T11:50:19.432Z,11.32
2022-09-02T11:53:13.771Z,10.15
2022-09-02T11:55:47.044Z,8.43
2022-09-02T11:58:37.780Z,7.38
2022-09-02T12:04:59.416Z,9.65
2022-09-02T12:07:12.987Z,11.73
2022-09-02T12:09:55.475Z,8.13
2022-09-02T12:12:38.382Z,7.38
2022-09-02T12:15:06.400Z,9.82
2022-09-02T12:17:37.851Z,13.82
2022-09-02T12:20:08.312Z,4.90
2022-09-02T12:22:40.598Z,7.13
2022-09-02T12:25:28.507Z,11.93
2022-09-02T12:28:21.457Z,9.60
2022-09-02T12:31:08.800Z,9.27
2022-09-02T12:33:39.406Z,6.00
2022-09-02T12:38:38.809Z,5.90
2022-09-02T12:44:02.148Z,4.65
2022-09-02T12:46:48.362Z,5.55
2022-09-02T12:49:37.847Z,5.32
2022-09-02T12:52:10.592Z,5.53
2022-09-02T12:54:49.463Z,5.97
2022-09-02T12:57:18.641Z,5.22
2022-09-02T12:59:47.559Z,5.07
2022-09-02T13:02:52.270Z,10.65
2022-09-02T13:05:38.212Z,5.57
2022-09-02T13:08:32.455Z,5.50
2022-09-02T13:11:21.348Z,5.93
2022-09-02T13:13:57.296Z,6.53
2022-09-02T13:16:54.103Z,7.88
2022-09-02T13:19:49.312Z,17.10
2022-09-02T13:22:24.022Z,6.43
2022-09-02T13:25:18.521Z,5.35
2022-09-02T13:28:18.723Z,9.68
2022-09-02T13:31:04.710Z,11.48
2022-09-02T13:33:32.816Z,7.88
2022-09-02T13:36:00.318Z,5.05
2022-09-02T13:38:29.783Z,8.52
2022-09-02T13:40:57.365Z,5.10
2022-09-02T13:43:27.147Z,8.23
2022-09-02T13:46:02.867Z,5.77
2022-09-02T13:48:33.967Z,7.43
2022-09-02T13:51:13.369Z,7.22
2022-09-02T13:53:59.444Z,8.45
2022-09-02T13:56:32.915Z,9.52
2022-09-02T13:59:00.296Z,7.13
2022-09-02T14:01:31.387Z,8.80
2022-09-02T14:04:02.924Z,8.05
2022-09-02T14:06:36.567Z,13.75
2022-09-02T14:09:10.440Z,8.00
2022-09-02T14:11:44.186Z,6.82
2022-09-02T14:14:17.298Z,7.63
2022-09-02T14:16:44.933Z,7.47
2022-09-02T14:19:23.499Z,10.82
2022-09-02T14:21:56.292Z,7.60
2022-09-02T14:24:37.157Z,7.85
2022-09-02T14:29:44.712Z,6.10
2022-09-02T14:32:21.428Z,6.43
2022-09-02T14:35:08.351Z,4.78
2022-09-02T14:37:55.890Z,7.05
2022-09-02T14:40:40.528Z,9.02
2022-09-02T14:43:16.310Z,8.52
2022-09-02T14:45:47.789Z,7.03
2022-09-02T14:48:26.900Z,5.25
2022-09-02T14:51:03.337Z,7.65
2022-09-02T14:53:31.867Z,8.10
2022-09-02T14:56:00.078Z,11.02
2022-09-02T14:58:28.432Z,7.97
2022-09-02T15:00:59.510Z,11.30
2022-09-02T15:03:28.390Z,11.43
2022-09-02T15:05:56.224Z,8.65
2022-09-02T15:08:23.938Z,8.50
2022-09-02T15:10:54.302Z,12.50
2022-09-02T15:13:32.548Z,11.73
2022-09-02T15:16:00.744Z,10.00
2022-09-02T15:18:28.260Z,11.68
2022-09-02T15:20:55.728Z,14.68
2022-09-02T15:23:24.141Z,9.63
2022-09-02T15:25:53.904Z,10.75
2022-09-02T15:28:21.322Z,12.38
2022-09-02T15:30:48.797Z,11.57
2022-09-02T15:33:17.710Z,15.25
2022-09-02T15:35:47.394Z,14.65
2022-09-02T15:38:14.927Z,11.43
2022-09-02T15:40:42.496Z,9.35
2022-09-02T15:43:09.876Z,12.10
2022-09-02T15:45:45.761Z,14.68
2022-09-02T15:48:13.452Z,12.38
2022-09-02T15:50:40.865Z,13.35
2022-09-02T15:53:08.366Z,12.98
2022-09-02T15:55:35.806Z,11.90
2022-09-02T15:58:03.169Z,12.82
2022-09-02T16:00:32.011Z,32.38
2022-09-02T16:03:00.904Z,19.63
2022-09-02T16:05:28.289Z,13.60
2022-09-02T16:07:55.927Z,13.50
2022-09-02T16:10:23.368Z,12.80
2022-09-02T16:12:51.083Z,11.27
2022-09-02T16:15:18.805Z,7.40
2022-09-02T16:17:46.401Z,16.10
2022-09-02T16:20:15.320Z,11.82
2022-09-02T16:22:45.449Z,13.80
2022-09-02T16:25:12.854Z,14.05
2022-09-02T16:27:52.310Z,9.55
2022-09-02T16:30:20.749Z,15.25
2022-09-02T16:32:50.686Z,9.27
2022-09-02T16:35:18.220Z,11.10
2022-09-02T16:37:45.626Z,12.05
2022-09-02T16:40:21.715Z,12.82
2022-09-02T16:42:49.755Z,12.07
2022-09-02T16:45:17.270Z,12.27
2022-09-02T16:47:44.727Z,10.15
2022-09-02T16:50:12.695Z,12.25
2022-09-02T16:52:41.127Z,13.70
2022-09-02T16:55:08.733Z,10.50
2022-09-02T16:57:36.145Z,12.43
2022-09-02T17:00:04.450Z,15.38
2022-09-02T17:02:31.970Z,13.68
2022-09-02T17:04:59.464Z,12.10
2022-09-02T17:07:26.893Z,13.38
2022-09-02T17:09:54.276Z,13.73
2022-09-02T17:12:21.667Z,15.75
2022-09-02T17:14:49.149Z,12.57
2022-09-02T17:17:17.237Z,15.23
2022-09-02T17:19:44.795Z,20.45
2022-09-02T17:22:12.253Z,17.13
2022-09-02T17:24:41.994Z,16.73
2022-09-02T17:27:09.608Z,15.47
2022-09-02T17:29:52.412Z,20.40
2022-09-02T17:32:20.557Z,11.50
2022-09-02T17:34:49.639Z,14.05
2022-09-02T17:37:17.226Z,13.05
2022-09-02T17:39:46.656Z,12.43
2022-09-02T17:42:15.286Z,11.63
2022-09-02T17:44:42.934Z,13.60
2022-09-02T17:47:16.574Z,14.10
2022-09-02T17:49:44.655Z,14.57
2022-09-02T17:52:23.863Z,12.73
2022-09-02T17:54:54.124Z,13.85
2022-09-02T17:57:43.181Z,14.48
2022-09-02T18:00:13.862Z,16.00
2022-09-02T18:03:13.395Z,18.48
2022-09-02T18:05:52.090Z,33.90
2022-09-02T18:08:33.733Z,15.27
2022-09-02T18:11:04.538Z,17.48
2022-09-02T18:16:25.735Z,19.85
2022-09-02T18:19:16.317Z,16.20
2022-09-02T18:22:14.604Z,16.52
2022-09-02T18:25:24.627Z,18.58
2022-09-02T18:28:27.034Z,14.57
2022-09-02T18:31:22.567Z,18.63
2022-09-02T18:34:32.349Z,17.63
2022-09-02T18:37:21.455Z,20.70
2022-09-02T18:39:57.362Z,19.83
2022-09-02T18:42:59.067Z,20.98
2022-09-02T18:45:35.630Z,20.55
2022-09-02T18:48:10.260Z,20.35
2022-09-02T18:50:50.795Z,20.10
2022-09-02T18:53:28.684Z,17.30
2022-09-02T18:55:58.011Z,15.80
2022-09-02T18:58:42.253Z,22.13
2022-09-02T19:01:24.499Z,17.08
2022-09-02T19:03:52.354Z,15.60
2022-09-02T19:06:22.671Z,13.52
2022-09-02T19:09:00.993Z,34.85
2022-09-02T19:11:33.285Z,21.20
2022-09-02T19:14:12.565Z,17.65
2022-09-02T19:16:40.164Z,23.08
2022-09-02T19:19:08.026Z,27.33
2022-09-02T19:21:45.683Z,23.83
2022-09-02T19:24:44.915Z,22.63
2022-09-02T19:27:25.213Z,19.98
2022-09-02T19:29:58.265Z,17.30
2022-09-02T19:32:33.415Z,19.35
2022-09-02T19:35:04.729Z,24.40
2022-09-02T19:37:32.140Z,23.27
2022-09-02T19:40:04.967Z,25.13
2022-09-02T19:42:33.281Z,26.98
2022-09-02T19:45:00.713Z,26.08
2022-09-02T19:50:21.281Z,25.90
2022-09-02T19:52:49.787Z,25.55
2022-09-02T19:55:18.801Z,27.65
2022-09-02T19:57:46.418Z,27.15
2022-09-02T20:00:15.007Z,33.85
2022-09-02T20:02:43.055Z,33.05
2022-09-02T20:05:12.909Z,30.55
2022-09-02T20:07:40.970Z,31.70
2022-09-02T20:10:09.054Z,34.83
2022-09-02T20:12:36.879Z,30.58
2022-09-02T20:15:06.761Z,31.35
2022-09-02T20:17:34.681Z,29.80
2022-09-02T20:20:12.033Z,32.75
2022-09-02T20:22:39.435Z,28.02
2022-09-02T20:25:07.139Z,32.10
2022-09-02T20:27:47.438Z,32.92
2022-09-02T20:30:17.359Z,33.47
2022-09-02T20:33:01.974Z,35.90
2022-09-02T20:36:08.698Z,33.13
2022-09-02T20:38:59.409Z,32.05
2022-09-02T20:41:55.223Z,35.10
2022-09-02T20:44:29.935Z,38.38
2022-09-02T20:47:16.364Z,34.00
2022-09-02T20:49:55.647Z,35.83
2022-09-02T20:52:53.319Z,36.67
2022-09-02T20:55:29.942Z,34.20
2022-09-02T20:58:22.787Z,37.75
2022-09-02T21:01:16.286Z,38.90
2022-09-02T21:04:05.497Z,36.50
2022-09-02T21:06:37.766Z,41.22
2022-09-02T21:09:42.655Z,40.78
2022-09-02T21:12:22.036Z,38.13
2022-09-02T21:14:56.033Z,36.08
2022-09-02T21:17:51.236Z,38.47
2022-09-02T21:20:29.763Z,39.90
2022-09-02T21:23:01.179Z,35.35
2022-09-02T21:25:36.093Z,28.40
2022-09-02T21:28:15.427Z,20.85
2022-09-02T21:30:48.452Z,22.05
2022-09-02T21:33:17.424Z,20.35
2022-09-02T21:35:50.138Z,20.42
2022-09-02T21:38:24.613Z,28.92
2022-09-02T21:41:28.942Z,21.02
2022-09-02T21:44:05.195Z,21.00
2022-09-02T21:46:58.321Z,27.25
2022-09-02T21:49:40.836Z,24.88
2022-09-02T21:52:45.629Z,19.55
2022-09-02T21:55:50.786Z,26.27
2022-09-02T21:58:59.260Z,24.08
2022-09-02T22:01:44.629Z,18.45
2022-09-02T22:04:41.391Z,17.27
2022-09-02T22:07:18.979Z,14.43
2022-09-02T22:09:58.800Z,14.80
2022-09-02T22:12:26.393Z,16.55
2022-09-02T22:15:01.947Z,15.90
2022-09-02T22:17:56.168Z,13.43
2022-09-02T22:20:31.450Z,17.98
2022-09-02T22:23:05.188Z,28.70
2022-09-02T22:25:38.169Z,17.27
2022-09-02T22:28:14.490Z,17.45
2022-09-02T22:30:47.793Z,13.95
2022-09-02T22:33:21.055Z,17.67
2022-09-02T22:35:55.035Z,13.52
2022-09-02T22:38:52.147Z,16.05
2022-09-02T22:41:43.743Z,11.90
2022-09-02T22:44:20.450Z,15.90
2022-09-02T22:47:10.600Z,27.40
2022-09-02T22:50:09.102Z,13.80
2022-09-02T22:52:49.439Z,9.82
2022-09-02T22:55:34.452Z,9.88
2022-09-02T22:58:11.092Z,11.98
2022-09-02T23:00:47.181Z,11.23
2022-09-02T23:03:25.158Z,16.00
2022-09-02T23:06:19.895Z,12.05
2022-09-02T23:08:49.010Z,13.30
2022-09-02T23:11:28.367Z,10.25
2022-09-02T23:14:11.136Z,13.93
2022-09-02T23:16:45.218Z,13.88
2022-09-02T23:19:44.386Z,9.55
2022-09-02T23:22:35.102Z,16.33
2022-09-02T23:25:41.897Z,12.10
2022-09-02T23:28:15.150Z,12.43
2022-09-02T23:31:01.172Z,15.48
2022-09-02T23:33:38.294Z,18.88
2022-09-02T23:36:36.067Z,13.85
2022-09-02T23:39:16.198Z,22.40
2022-09-02T23:41:47.369Z,18.55
2022-09-02T23:44:14.936Z,17.58
2022-09-02T23:47:28.933Z,16.83
2022-09-02T23:50:08.328Z,14.98
2022-09-02T23:52:56.340Z,21.67
2022-09-02T23:55:51.134Z,15.25
2022-09-02T23:58:36.678Z,17.65
